createdAt,value
2019-05-29T00:01:23.361Z,10.60
2019-05-29T00:03:24.724Z,10.70
2019-05-29T00:05:25.993Z,10.20
2019-05-29T00:07:27.279Z,10.10
2019-05-29T00:09:28.821Z,10.10
2019-05-29T00:11:30.362Z,10.40
2019-05-29T00:13:33.133Z,10.50
2019-05-29T00:15:34.410Z,10.60
2019-05-29T00:17:35.682Z,10.10
2019-05-29T00:19:36.958Z,10.20
2019-05-29T00:21:38.218Z,9.90
2019-05-29T00:23:39.486Z,10.00
2019-05-29T00:25:40.757Z,10.20
2019-05-29T00:27:42.025Z,10.30
2019-05-29T00:29:43.305Z,10.30
2019-05-29T00:31:44.575Z,10.20
2019-05-29T00:33:45.834Z,10.40
2019-05-29T00:35:47.133Z,10.40
2019-05-29T00:37:49.652Z,10.50
2019-05-29T00:39:51.145Z,10.50
2019-05-29T00:41:52.664Z,10.30
2019-05-29T00:43:53.921Z,10.10
2019-05-29T00:45:55.192Z,10.20
2019-05-29T00:47:56.788Z,10.30
2019-05-29T00:49:57.978Z,10.20
2019-05-29T00:51:59.526Z,10.20
2019-05-29T00:54:01.035Z,9.90
2019-05-29T00:56:02.313Z,9.80
2019-05-29T00:58:03.570Z,9.70
2019-05-29T01:00:06.049Z,9.80
2019-05-29T01:02:07.616Z,9.70
2019-05-29T01:04:09.593Z,9.70
2019-05-29T01:06:11.962Z,9.60
2019-05-29T01:08:14.473Z,9.80
2019-05-29T01:10:17.156Z,9.80
2019-05-29T01:12:19.177Z,9.60
2019-05-29T01:14:21.489Z,9.70
2019-05-29T01:16:22.845Z,9.60
2019-05-29T01:18:24.110Z,9.70
2019-05-29T01:20:25.405Z,9.70
2019-05-29T01:22:26.775Z,9.40
2019-05-29T01:24:28.435Z,9.40
2019-05-29T01:26:29.785Z,9.40
2019-05-29T01:28:31.061Z,9.10
2019-05-29T01:30:32.354Z,8.70
2019-05-29T01:32:33.613Z,8.50
2019-05-29T01:34:34.893Z,8.50
2019-05-29T01:36:36.169Z,8.60
2019-05-29T01:38:37.442Z,8.50
2019-05-29T01:40:39.931Z,8.70
2019-05-29T01:42:41.170Z,8.50
2019-05-29T01:44:42.553Z,8.30
2019-05-29T01:46:44.079Z,8.10
2019-05-29T01:48:45.599Z,8.40
2019-05-29T01:50:46.881Z,8.70
2019-05-29T01:52:48.408Z,8.90
2019-05-29T01:54:49.721Z,8.90
2019-05-29T01:56:51.245Z,8.60
2019-05-29T01:58:52.724Z,8.30
2019-05-29T02:00:54.248Z,8.50
2019-05-29T02:02:55.437Z,8.70
2019-05-29T02:04:56.713Z,8.80
2019-05-29T02:06:59.039Z,8.90
2019-05-29T02:09:01.235Z,8.90
2019-05-29T02:11:02.638Z,8.80
2019-05-29T02:13:03.961Z,8.90
2019-05-29T02:15:21.110Z,8.90
2019-05-29T02:17:09.809Z,8.90
2019-05-29T02:19:11.134Z,8.90
2019-05-29T02:21:12.423Z,8.90
2019-05-29T02:23:13.755Z,8.90
2019-05-29T02:25:19.623Z,8.80
2019-05-29T02:27:21.950Z,8.80
2019-05-29T02:29:24.789Z,8.70
2019-05-29T02:31:28.644Z,8.70
2019-05-29T02:33:29.625Z,8.70
2019-05-29T02:35:30.928Z,8.60
2019-05-29T02:37:32.540Z,8.60
2019-05-29T02:39:33.821Z,8.50
2019-05-29T02:41:35.296Z,8.50
2019-05-29T02:43:36.611Z,8.50
2019-05-29T02:45:53.547Z,8.50
2019-05-29T02:47:41.200Z,8.50
2019-05-29T02:49:42.479Z,8.50
2019-05-29T02:51:43.906Z,8.40
2019-05-29T02:53:45.283Z,8.30
2019-05-29T02:55:46.606Z,8.30
2019-05-29T02:57:47.880Z,8.20
2019-05-29T02:59:49.166Z,8.30
2019-05-29T03:01:50.516Z,8.30
2019-05-29T03:03:51.940Z,8.30
2019-05-29T03:05:54.051Z,8.40
2019-05-29T03:07:55.510Z,8.30
2019-05-29T03:09:56.896Z,8.30
2019-05-29T03:12:00.240Z,8.20
2019-05-29T03:14:03.168Z,8.20
2019-05-29T03:16:12.902Z,8.10
2019-05-29T03:18:08.078Z,8.10
2019-05-29T03:20:10.564Z,7.90
2019-05-29T03:22:11.918Z,7.90
2019-05-29T03:24:13.220Z,7.70
2019-05-29T03:26:14.600Z,7.80
2019-05-29T03:28:15.975Z,7.90
2019-05-29T03:30:17.353Z,7.80
2019-05-29T03:32:18.705Z,8.00
2019-05-29T03:34:20.003Z,8.00
2019-05-29T03:36:21.608Z,8.00
2019-05-29T03:38:22.806Z,8.00
2019-05-29T03:40:24.093Z,7.90
2019-05-29T03:42:26.448Z,7.90
2019-05-29T03:44:28.692Z,7.90
2019-05-29T03:46:39.983Z,8.00
2019-05-29T03:48:34.534Z,7.90
2019-05-29T03:50:35.976Z,7.70
2019-05-29T03:52:38.951Z,7.70
2019-05-29T03:54:41.590Z,7.70
2019-05-29T03:56:43.024Z,7.70
2019-05-29T03:58:44.290Z,7.90
2019-05-29T04:00:48.777Z,7.90
2019-05-29T04:02:49.818Z,8.00
2019-05-29T04:04:51.216Z,8.10
2019-05-29T04:06:52.499Z,8.10
2019-05-29T04:08:54.489Z,8.20
2019-05-29T04:10:56.473Z,8.10
2019-05-29T04:12:59.686Z,8.10
2019-05-29T04:15:01.146Z,8.20
2019-05-29T04:17:02.734Z,8.30
2019-05-29T04:19:03.974Z,8.40
2019-05-29T04:21:05.554Z,8.40
2019-05-29T04:23:07.131Z,8.40
2019-05-29T04:25:10.025Z,8.50
2019-05-29T04:27:12.903Z,8.50
2019-05-29T04:29:14.370Z,8.60
2019-05-29T04:31:15.653Z,8.60
2019-05-29T04:33:16.970Z,8.60
2019-05-29T04:35:18.490Z,8.70
2019-05-29T04:37:20.069Z,8.70
2019-05-29T04:39:22.461Z,8.60
2019-05-29T04:41:23.947Z,8.60
2019-05-29T04:43:25.225Z,8.70
2019-05-29T04:45:26.648Z,8.70
2019-05-29T04:47:28.912Z,8.70
2019-05-29T04:49:31.919Z,8.40
2019-05-29T04:51:35.435Z,8.20
2019-05-29T04:53:37.699Z,8.00
2019-05-29T04:55:39.542Z,8.00
2019-05-29T04:57:40.830Z,8.00
2019-05-29T04:59:42.113Z,7.90
2019-05-29T05:01:43.399Z,7.90
2019-05-29T05:03:44.683Z,7.90
2019-05-29T05:05:45.956Z,7.90
2019-05-29T05:07:47.338Z,8.00
2019-05-29T05:09:48.617Z,8.10
2019-05-29T05:11:50.618Z,8.20
2019-05-29T05:13:52.146Z,8.30
2019-05-29T05:15:54.523Z,8.40
2019-05-29T05:17:55.808Z,8.40
2019-05-29T05:19:57.070Z,8.50
2019-05-29T05:21:58.370Z,8.60
2019-05-29T05:23:59.868Z,8.70
2019-05-29T05:26:01.169Z,8.70
2019-05-29T05:28:03.368Z,8.80
2019-05-29T05:30:08.597Z,8.90
2019-05-29T05:32:08.646Z,9.00
2019-05-29T05:34:10.068Z,9.10
2019-05-29T05:36:11.442Z,9.10
2019-05-29T05:38:14.054Z,9.20
2019-05-29T05:40:15.452Z,9.30
2019-05-29T05:42:16.831Z,9.40
2019-05-29T05:44:18.133Z,9.40
2019-05-29T05:46:19.436Z,9.50
2019-05-29T05:48:20.789Z,9.60
2019-05-29T05:50:22.869Z,9.60
2019-05-29T05:52:24.191Z,9.70
2019-05-29T05:54:26.495Z,9.70
2019-05-29T05:56:27.790Z,9.90
2019-05-29T05:58:29.143Z,9.90
2019-05-29T06:00:31.981Z,9.90
2019-05-29T06:02:33.737Z,10.00
2019-05-29T06:04:35.899Z,10.10
2019-05-29T06:06:38.104Z,10.20
2019-05-29T06:08:40.235Z,10.30
2019-05-29T06:10:42.413Z,10.30
2019-05-29T06:12:43.805Z,10.50
2019-05-29T06:14:45.083Z,10.50
2019-05-29T06:16:46.370Z,10.60
2019-05-29T06:18:47.654Z,10.70
2019-05-29T06:20:48.984Z,10.70
2019-05-29T06:22:50.262Z,10.80
2019-05-29T06:24:51.535Z,10.80
2019-05-29T06:26:52.809Z,10.90
2019-05-29T06:28:54.092Z,11.00
2019-05-29T06:30:55.378Z,11.00
2019-05-29T06:32:56.717Z,11.10
2019-05-29T06:34:58.022Z,11.20
2019-05-29T06:36:59.400Z,11.20
2019-05-29T06:39:00.686Z,11.30
2019-05-29T06:41:02.071Z,11.40
2019-05-29T06:43:03.960Z,11.50
2019-05-29T06:45:06.232Z,11.50
2019-05-29T06:47:07.782Z,11.50
2019-05-29T06:49:09.073Z,11.60
2019-05-29T06:51:10.342Z,11.70
2019-05-29T06:53:11.634Z,11.80
2019-05-29T06:55:13.114Z,11.80
2019-05-29T06:57:14.422Z,11.90
2019-05-29T06:59:15.703Z,12.00
2019-05-29T07:01:17.121Z,12.10
2019-05-29T07:03:18.721Z,12.20
2019-05-29T07:05:19.905Z,12.20
2019-05-29T07:07:21.271Z,12.30
2019-05-29T07:09:22.559Z,12.40
2019-05-29T07:11:23.834Z,12.40
2019-05-29T07:13:25.128Z,12.50
2019-05-29T07:15:26.410Z,12.40
2019-05-29T07:17:27.778Z,12.50
2019-05-29T07:19:47.103Z,12.50
2019-05-29T07:21:32.374Z,12.60
2019-05-29T07:23:33.674Z,12.60
2019-05-29T07:25:34.959Z,12.70
2019-05-29T07:27:36.833Z,12.80
2019-05-29T07:29:39.030Z,12.90
2019-05-29T07:31:40.925Z,12.90
2019-05-29T07:33:43.280Z,13.10
2019-05-29T07:35:45.594Z,13.20
2019-05-29T07:37:48.066Z,13.30
2019-05-29T07:39:49.544Z,13.30
2019-05-29T07:41:50.911Z,13.30
2019-05-29T07:43:52.200Z,13.30
2019-05-29T07:45:53.475Z,13.50
2019-05-29T07:47:54.750Z,13.60
2019-05-29T07:49:56.042Z,13.60
2019-05-29T07:51:57.374Z,13.70
2019-05-29T07:53:58.663Z,13.80
2019-05-29T07:55:59.919Z,13.90
2019-05-29T07:58:01.206Z,14.00
2019-05-29T08:00:04.987Z,14.00
2019-05-29T08:02:07.580Z,14.10
2019-05-29T08:04:08.881Z,14.10
2019-05-29T08:06:10.257Z,14.20
2019-05-29T08:08:11.541Z,14.20
2019-05-29T08:10:13.021Z,14.20
2019-05-29T08:12:14.309Z,14.20
2019-05-29T08:14:15.609Z,14.10
2019-05-29T08:16:16.878Z,13.90
2019-05-29T08:18:18.151Z,13.90
2019-05-29T08:20:19.531Z,14.00
2019-05-29T08:22:33.757Z,14.20
2019-05-29T08:24:25.031Z,14.40
2019-05-29T08:26:26.417Z,14.60
2019-05-29T08:28:27.707Z,14.80
2019-05-29T08:30:29.039Z,15.10
2019-05-29T08:32:30.465Z,15.30
2019-05-29T08:34:31.746Z,15.50
2019-05-29T08:36:33.024Z,15.70
2019-05-29T08:38:34.377Z,16.00
2019-05-29T08:40:36.750Z,16.10
2019-05-29T08:42:38.059Z,16.20
2019-05-29T08:44:39.356Z,16.30
2019-05-29T08:46:41.685Z,16.50
2019-05-29T08:48:43.711Z,16.60
2019-05-29T08:50:45.697Z,16.70
2019-05-29T08:52:47.958Z,16.70
2019-05-29T08:54:50.121Z,16.70
2019-05-29T08:56:52.533Z,16.90
2019-05-29T08:58:54.092Z,17.00
2019-05-29T09:00:55.443Z,17.10
2019-05-29T09:02:56.737Z,17.00
2019-05-29T09:04:58.133Z,17.00
2019-05-29T09:06:59.499Z,17.00
2019-05-29T09:09:00.789Z,17.00
2019-05-29T09:11:02.067Z,17.00
2019-05-29T09:13:05.110Z,17.00
2019-05-29T09:15:08.820Z,17.10
2019-05-29T09:17:11.914Z,17.20
2019-05-29T09:19:14.176Z,17.30
2019-05-29T09:21:16.312Z,17.10
2019-05-29T09:23:18.960Z,17.00
2019-05-29T09:25:21.195Z,16.90
2019-05-29T09:27:23.322Z,16.10
2019-05-29T09:29:25.037Z,16.60
2019-05-29T09:31:26.393Z,16.90
2019-05-29T09:33:27.725Z,17.20
2019-05-29T09:35:29.016Z,17.50
2019-05-29T09:37:30.282Z,17.60
2019-05-29T09:39:31.682Z,17.80
2019-05-29T09:41:33.082Z,17.90
2019-05-29T09:43:34.362Z,18.20
2019-05-29T09:45:35.760Z,17.80
2019-05-29T09:47:37.037Z,17.10
2019-05-29T09:49:38.325Z,17.30
2019-05-29T09:51:39.604Z,17.40
2019-05-29T09:53:40.902Z,17.10
2019-05-29T09:55:42.203Z,16.90
2019-05-29T09:57:43.474Z,17.30
2019-05-29T09:59:44.774Z,17.80
2019-05-29T10:01:46.058Z,17.90
2019-05-29T10:03:47.367Z,17.70
2019-05-29T10:05:48.744Z,17.60
2019-05-29T10:07:50.121Z,17.80
2019-05-29T10:09:51.665Z,18.00
2019-05-29T10:11:54.661Z,18.40
2019-05-29T10:13:56.907Z,18.60
2019-05-29T10:16:00.755Z,18.90
2019-05-29T10:18:02.743Z,19.20
2019-05-29T10:20:07.102Z,19.50
2019-05-29T10:22:08.396Z,19.90
2019-05-29T10:24:10.194Z,20.20
2019-05-29T10:26:12.511Z,20.50
2019-05-29T10:28:13.774Z,20.80
2019-05-29T10:30:15.606Z,21.00
2019-05-29T10:32:16.944Z,21.20
2019-05-29T10:34:18.342Z,21.30
2019-05-29T10:36:19.618Z,21.20
2019-05-29T10:38:20.883Z,21.10
2019-05-29T10:40:22.219Z,21.00
2019-05-29T10:42:23.659Z,20.80
2019-05-29T10:44:25.020Z,20.60
2019-05-29T10:46:26.486Z,19.70
2019-05-29T10:48:27.793Z,18.90
2019-05-29T10:50:29.136Z,19.40
2019-05-29T10:52:31.438Z,19.80
2019-05-29T10:54:32.707Z,20.10
2019-05-29T10:56:33.987Z,20.50
2019-05-29T10:58:48.442Z,20.90
2019-05-29T11:00:39.577Z,21.10
2019-05-29T11:02:41.244Z,21.50
2019-05-29T11:04:42.510Z,21.80
2019-05-29T11:06:43.823Z,22.00
2019-05-29T11:08:45.871Z,21.80
2019-05-29T11:10:47.926Z,21.70
2019-05-29T11:12:50.649Z,22.00
2019-05-29T11:14:52.892Z,22.20
2019-05-29T11:16:55.059Z,22.20
2019-05-29T11:18:57.601Z,22.30
2019-05-29T11:20:59.090Z,22.50
2019-05-29T11:23:00.771Z,22.20
2019-05-29T11:25:21.101Z,22.00
2019-05-29T11:27:07.137Z,22.00
2019-05-29T11:29:08.540Z,22.30
2019-05-29T11:31:09.784Z,22.20
2019-05-29T11:33:11.111Z,20.90
2019-05-29T11:35:12.554Z,19.70
2019-05-29T11:37:13.866Z,20.40
2019-05-29T11:39:15.217Z,20.30
2019-05-29T11:41:26.028Z,20.80
2019-05-29T11:43:19.803Z,21.60
2019-05-29T11:45:21.364Z,21.20
2019-05-29T11:47:22.573Z,21.10
2019-05-29T11:49:24.119Z,21.60
2019-05-29T11:51:25.312Z,22.10
2019-05-29T11:53:26.771Z,22.00
2019-05-29T11:55:28.055Z,21.80
2019-05-29T11:57:29.392Z,22.00
2019-05-29T11:59:30.636Z,21.80
2019-05-29T12:01:49.184Z,22.50
2019-05-29T12:03:35.140Z,23.10
2019-05-29T12:05:36.485Z,23.60
2019-05-29T12:07:37.810Z,23.90
2019-05-29T12:11:53.929Z,24.20
2019-05-29T12:13:56.070Z,21.90
2019-05-29T12:15:57.777Z,22.70
2019-05-29T12:18:20.017Z,23.40
2019-05-29T12:20:24.003Z,24.00
2019-05-29T12:22:08.643Z,24.50
2019-05-29T12:24:09.989Z,25.00
2019-05-29T12:26:21.784Z,24.60
2019-05-29T12:28:15.538Z,23.10
2019-05-29T12:30:17.485Z,23.20
2019-05-29T12:32:18.893Z,24.00
2019-05-29T12:34:20.307Z,24.70
2019-05-29T12:36:21.581Z,24.80
2019-05-29T12:38:23.016Z,25.20
2019-05-29T12:40:25.446Z,25.70
2019-05-29T12:42:26.794Z,26.00
2019-05-29T12:44:28.094Z,26.20
2019-05-29T12:46:29.440Z,26.50
2019-05-29T12:48:30.745Z,26.30
2019-05-29T12:50:34.630Z,25.20
2019-05-29T12:52:35.293Z,25.40
2019-05-29T12:54:36.573Z,25.70
2019-05-29T12:56:37.856Z,25.00
2019-05-29T12:58:39.161Z,24.40
2019-05-29T13:00:40.460Z,25.20
2019-05-29T13:02:42.182Z,25.30
2019-05-29T13:05:06.136Z,25.00
2019-05-29T13:06:46.730Z,25.20
2019-05-29T13:08:48.048Z,25.40
2019-05-29T13:10:49.296Z,25.90
2019-05-29T13:12:51.335Z,26.40
2019-05-29T13:14:54.403Z,26.80
2019-05-29T13:16:56.647Z,27.30
2019-05-29T13:18:59.083Z,27.60
2019-05-29T13:21:00.957Z,28.00
2019-05-29T13:23:04.506Z,28.00
2019-05-29T13:25:06.266Z,28.10
2019-05-29T13:27:07.533Z,28.10
2019-05-29T13:29:08.874Z,28.20
2019-05-29T13:31:10.194Z,28.30
2019-05-29T13:33:11.483Z,28.40
2019-05-29T13:35:13.730Z,28.60
2019-05-29T13:37:15.049Z,28.80
2019-05-29T13:39:16.387Z,29.00
2019-05-29T13:41:17.706Z,29.20
2019-05-29T13:43:19.986Z,29.40
2019-05-29T13:45:21.938Z,29.50
2019-05-29T13:47:23.217Z,29.80
2019-05-29T13:49:24.576Z,29.80
2019-05-29T13:51:26.131Z,29.90
2019-05-29T13:53:27.419Z,30.00
2019-05-29T13:55:28.628Z,30.10
2019-05-29T13:57:29.986Z,30.20
2019-05-29T13:59:31.289Z,30.30
2019-05-29T14:01:32.452Z,30.40
2019-05-29T14:03:33.834Z,30.20
2019-05-29T14:05:34.979Z,30.20
2019-05-29T14:07:36.255Z,30.10
2019-05-29T14:09:37.680Z,30.20
2019-05-29T14:11:39.012Z,30.30
2019-05-29T14:13:40.297Z,30.20
2019-05-29T14:15:41.832Z,30.00
2019-05-29T14:17:43.034Z,29.90
2019-05-29T14:19:44.322Z,29.90
2019-05-29T14:21:45.750Z,30.00
2019-05-29T14:23:47.036Z,30.20
2019-05-29T14:25:48.191Z,30.50
2019-05-29T14:27:49.617Z,30.70
2019-05-29T14:29:50.958Z,30.40
2019-05-29T14:31:52.148Z,29.80
2019-05-29T14:33:53.707Z,29.10
2019-05-29T14:35:54.979Z,28.50
2019-05-29T14:37:56.264Z,27.10
2019-05-29T14:39:57.503Z,26.70
2019-05-29T14:41:58.802Z,26.50
2019-05-29T14:44:00.098Z,26.20
2019-05-29T14:46:01.908Z,25.50
2019-05-29T14:48:06.194Z,24.40
2019-05-29T14:50:08.879Z,24.60
2019-05-29T14:52:11.635Z,24.60
2019-05-29T14:54:13.452Z,24.60
2019-05-29T14:56:14.751Z,24.10
2019-05-29T14:58:16.278Z,24.20
2019-05-29T15:00:24.918Z,24.30
2019-05-29T15:02:23.841Z,24.20
2019-05-29T15:04:24.250Z,24.20
2019-05-29T15:06:25.607Z,24.20
2019-05-29T15:08:26.774Z,24.00
2019-05-29T15:10:28.273Z,23.90
2019-05-29T15:12:29.541Z,23.70
2019-05-29T15:14:31.006Z,22.40
2019-05-29T15:16:32.635Z,21.90
2019-05-29T15:18:33.985Z,22.10
2019-05-29T15:20:35.286Z,22.40
2019-05-29T15:22:36.564Z,22.50
2019-05-29T15:24:37.926Z,22.70
2019-05-29T15:26:39.211Z,22.80
2019-05-29T15:28:40.626Z,22.90
2019-05-29T15:30:42.321Z,23.20
2019-05-29T15:32:45.676Z,23.90
2019-05-29T15:34:48.234Z,24.80
2019-05-29T15:36:49.648Z,25.60
2019-05-29T15:38:51.969Z,26.40
2019-05-29T15:40:53.233Z,27.10
2019-05-29T15:42:54.508Z,27.70
2019-05-29T15:44:58.874Z,27.90
2019-05-29T15:47:00.230Z,28.20
2019-05-29T15:49:01.541Z,28.40
2019-05-29T15:51:02.813Z,28.50
2019-05-29T15:53:04.184Z,28.00
2019-05-29T15:55:23.568Z,27.50
2019-05-29T15:57:11.593Z,26.80
2019-05-29T15:59:14.433Z,26.20
2019-05-29T16:01:16.049Z,25.60
2019-05-29T16:03:17.835Z,25.10
2019-05-29T16:05:21.984Z,25.10
2019-05-29T16:07:26.217Z,25.20
2019-05-29T16:09:27.749Z,25.60
2019-05-29T16:11:28.920Z,26.10
2019-05-29T16:13:30.301Z,26.70
2019-05-29T16:15:31.600Z,27.10
2019-05-29T16:17:32.886Z,27.40
2019-05-29T16:19:34.269Z,27.50
2019-05-29T16:21:35.502Z,27.80
2019-05-29T16:23:36.947Z,27.70
2019-05-29T16:25:40.636Z,27.10
2019-05-29T16:27:42.993Z,26.70
2019-05-29T16:29:44.374Z,26.20
2019-05-29T16:31:45.529Z,25.80
2019-05-29T16:33:46.846Z,25.30
2019-05-29T16:35:48.295Z,24.90
2019-05-29T16:37:49.446Z,24.40
2019-05-29T16:39:50.874Z,24.00
2019-05-29T16:41:52.467Z,23.80
2019-05-29T16:43:53.780Z,23.70
2019-05-29T16:45:55.077Z,24.10
2019-05-29T16:47:56.536Z,24.60
2019-05-29T16:49:57.715Z,25.10
2019-05-29T16:51:59.034Z,25.60
2019-05-29T16:54:00.351Z,26.00
2019-05-29T16:56:01.730Z,26.30
2019-05-29T16:58:02.990Z,26.60
2019-05-29T17:00:08.744Z,26.50
2019-05-29T17:02:10.018Z,26.60
2019-05-29T17:04:11.302Z,26.70
2019-05-29T17:06:13.630Z,26.60
2019-05-29T17:08:16.027Z,26.10
2019-05-29T17:10:20.401Z,26.10
2019-05-29T17:12:22.565Z,26.10
2019-05-29T17:14:25.056Z,25.60
2019-05-29T17:16:26.682Z,25.60
2019-05-29T17:18:28.230Z,25.60
2019-05-29T17:20:43.558Z,25.40
2019-05-29T17:22:47.579Z,25.30
2019-05-29T17:24:50.087Z,25.10
2019-05-29T17:26:51.410Z,24.90
2019-05-29T17:28:52.786Z,24.70
2019-05-29T17:30:53.962Z,24.50
2019-05-29T17:32:55.319Z,24.50
2019-05-29T17:34:56.594Z,24.30
2019-05-29T17:36:58.007Z,23.80
2019-05-29T17:38:59.163Z,23.50
2019-05-29T17:41:00.499Z,23.10
2019-05-29T17:43:01.789Z,22.80
2019-05-29T17:45:07.365Z,22.50
2019-05-29T17:47:09.867Z,22.10
2019-05-29T17:49:11.271Z,21.80
2019-05-29T17:51:12.553Z,21.60
2019-05-29T17:53:13.940Z,21.30
2019-05-29T17:55:19.079Z,21.10
2019-05-29T17:57:19.859Z,20.40
2019-05-29T17:59:22.147Z,20.20
2019-05-29T18:01:24.273Z,20.20
2019-05-29T18:03:26.339Z,20.10
2019-05-29T18:05:28.088Z,20.10
2019-05-29T18:07:29.378Z,20.20
2019-05-29T18:09:30.701Z,20.20
2019-05-29T18:11:33.897Z,20.30
2019-05-29T18:13:35.178Z,20.30
2019-05-29T18:15:36.551Z,19.90
2019-05-29T18:17:37.837Z,19.80
2019-05-29T18:19:39.116Z,19.90
2019-05-29T18:21:40.632Z,19.80
2019-05-29T18:23:41.965Z,19.70
2019-05-29T18:25:43.390Z,19.50
2019-05-29T18:27:44.657Z,19.60
2019-05-29T18:29:46.103Z,19.50
2019-05-29T18:31:47.347Z,19.30
2019-05-29T18:33:48.639Z,19.40
2019-05-29T18:35:51.307Z,19.20
2019-05-29T18:37:52.614Z,19.00
2019-05-29T18:39:53.937Z,19.10
2019-05-29T18:41:55.287Z,19.20
2019-05-29T18:43:56.563Z,19.30
2019-05-29T18:45:57.950Z,19.20
2019-05-29T18:47:59.255Z,19.00
2019-05-29T18:50:00.658Z,18.70
2019-05-29T18:52:01.953Z,18.40
2019-05-29T18:54:03.224Z,18.40
2019-05-29T18:56:04.633Z,18.30
2019-05-29T18:58:06.016Z,18.30
2019-05-29T19:00:09.220Z,18.20
2019-05-29T19:02:10.615Z,18.00
2019-05-29T19:04:11.910Z,18.10
2019-05-29T19:06:13.255Z,18.10
2019-05-29T19:08:14.693Z,18.00
2019-05-29T19:10:16.516Z,18.00
2019-05-29T19:12:18.734Z,18.10
2019-05-29T19:14:20.131Z,18.10
2019-05-29T19:16:21.862Z,18.10
2019-05-29T19:18:24.095Z,18.10
2019-05-29T19:20:26.582Z,18.10
2019-05-29T19:22:28.461Z,18.00
2019-05-29T19:24:30.627Z,18.00
2019-05-29T19:26:35.364Z,18.00
2019-05-29T19:28:35.782Z,18.00
2019-05-29T19:30:36.957Z,17.70
2019-05-29T19:32:38.345Z,17.80
2019-05-29T19:34:40.756Z,17.90
2019-05-29T19:36:42.166Z,17.90
2019-05-29T19:38:43.562Z,17.90
2019-05-29T19:40:45.401Z,17.90
2019-05-29T19:42:47.245Z,17.90
2019-05-29T19:44:48.385Z,17.80
2019-05-29T19:46:53.927Z,17.80
2019-05-29T19:48:52.845Z,17.80
2019-05-29T19:50:54.114Z,17.70
2019-05-29T19:52:55.803Z,17.70
2019-05-29T19:54:57.144Z,17.60
2019-05-29T19:56:58.411Z,17.30
2019-05-29T19:58:59.805Z,17.30
2019-05-29T20:01:01.273Z,17.40
2019-05-29T20:03:02.809Z,17.40
2019-05-29T20:05:05.280Z,17.30
2019-05-29T20:07:06.553Z,17.30
2019-05-29T20:09:07.830Z,17.30
2019-05-29T20:11:09.474Z,17.30
2019-05-29T20:13:10.627Z,17.30
2019-05-29T20:15:12.013Z,17.20
2019-05-29T20:17:13.377Z,17.10
2019-05-29T20:19:14.651Z,17.10
2019-05-29T20:21:15.935Z,16.80
2019-05-29T20:23:18.202Z,16.80
2019-05-29T20:25:19.735Z,16.80
2019-05-29T20:27:21.152Z,16.80
2019-05-29T20:29:22.624Z,16.70
2019-05-29T20:31:23.905Z,16.80
2019-05-29T20:33:25.177Z,16.70
2019-05-29T20:35:26.441Z,16.60
2019-05-29T20:37:27.738Z,16.50
2019-05-29T20:39:30.203Z,16.50
2019-05-29T20:41:34.115Z,16.50
2019-05-29T20:43:35.471Z,16.30
2019-05-29T20:45:37.677Z,16.30
2019-05-29T20:47:40.059Z,16.20
2019-05-29T20:49:42.293Z,16.20
2019-05-29T20:51:43.834Z,16.10
2019-05-29T20:53:45.149Z,16.00
2019-05-29T20:55:48.128Z,15.80
2019-05-29T20:57:49.678Z,15.90
2019-05-29T20:59:51.020Z,15.80
2019-05-29T21:01:52.501Z,15.80
2019-05-29T21:03:53.779Z,15.70
2019-05-29T21:05:55.033Z,15.60
2019-05-29T21:07:56.307Z,15.50
2019-05-29T21:09:57.577Z,15.40
2019-05-29T21:11:58.863Z,15.10
2019-05-29T21:14:00.401Z,15.10
2019-05-29T21:16:03.974Z,15.00
2019-05-29T21:18:05.529Z,15.00
2019-05-29T21:20:08.417Z,15.00
2019-05-29T21:22:10.681Z,15.00
2019-05-29T21:24:11.988Z,14.80
2019-05-29T21:26:13.610Z,14.80
2019-05-29T21:28:14.977Z,14.80
2019-05-29T21:30:20.293Z,14.70
2019-05-29T21:32:21.801Z,14.70
2019-05-29T21:34:23.078Z,14.70
2019-05-29T21:36:24.346Z,14.60
2019-05-29T21:38:25.619Z,14.40
2019-05-29T21:40:26.913Z,14.20
2019-05-29T21:42:28.202Z,14.20
2019-05-29T21:44:29.466Z,13.90
2019-05-29T21:46:31.734Z,13.80
2019-05-29T21:48:34.302Z,13.70
2019-05-29T21:50:35.468Z,13.70
2019-05-29T21:52:37.492Z,13.70
2019-05-29T21:54:39.319Z,13.80
2019-05-29T21:56:41.590Z,13.60
2019-05-29T21:58:57.816Z,13.50
2019-05-29T22:00:51.749Z,13.40
2019-05-29T22:02:54.922Z,13.30
2019-05-29T22:04:56.198Z,13.50
2019-05-29T22:06:57.513Z,13.60
2019-05-29T22:08:58.814Z,13.80
2019-05-29T22:11:00.262Z,13.80
2019-05-29T22:13:01.737Z,13.90
2019-05-29T22:15:05.793Z,14.00
2019-05-29T22:17:07.344Z,14.00
2019-05-29T22:19:08.950Z,14.00
2019-05-29T22:21:10.214Z,14.00
2019-05-29T22:23:12.724Z,13.90
2019-05-29T22:25:14.498Z,13.90
2019-05-29T22:27:15.876Z,13.90
2019-05-29T22:29:18.574Z,13.80
2019-05-29T22:31:20.058Z,13.80
2019-05-29T22:33:21.389Z,13.80
2019-05-29T22:35:22.783Z,13.60
2019-05-29T22:37:24.064Z,13.60
2019-05-29T22:39:25.336Z,13.60
2019-05-29T22:41:26.609Z,13.60
2019-05-29T22:43:27.965Z,13.60
2019-05-29T22:45:29.236Z,13.60
2019-05-29T22:47:30.529Z,13.40
2019-05-29T22:49:31.806Z,13.30
2019-05-29T22:51:33.061Z,13.30
2019-05-29T22:53:35.645Z,13.20
2019-05-29T22:55:37.053Z,13.20
2019-05-29T22:57:38.347Z,13.20
2019-05-29T22:59:39.623Z,13.10
2019-05-29T23:01:40.885Z,12.90
2019-05-29T23:03:42.222Z,13.00
2019-05-29T23:05:43.609Z,13.00
2019-05-29T23:07:44.875Z,13.10
2019-05-29T23:09:46.152Z,13.10
2019-05-29T23:11:47.412Z,13.10
2019-05-29T23:13:48.693Z,13.00
2019-05-29T23:15:49.975Z,13.10
2019-05-29T23:17:52.381Z,13.00
2019-05-29T23:19:54.535Z,13.00
2019-05-29T23:21:56.510Z,12.90
2019-05-29T23:23:57.899Z,13.00
2019-05-29T23:25:59.173Z,13.00
2019-05-29T23:28:01.095Z,12.90
2019-05-29T23:30:06.381Z,12.80
2019-05-29T23:32:07.649Z,12.70
2019-05-29T23:34:09.176Z,12.30
2019-05-29T23:36:10.704Z,12.20
2019-05-29T23:38:11.949Z,12.10
2019-05-29T23:40:13.591Z,11.90
2019-05-29T23:42:14.730Z,11.80
2019-05-29T23:44:16.006Z,11.80
2019-05-29T23:46:17.351Z,11.90
2019-05-29T23:48:18.625Z,12.00
2019-05-29T23:50:19.962Z,11.90
2019-05-29T23:52:22.315Z,12.00
2019-05-29T23:54:23.577Z,12.00
2019-05-29T23:56:25.467Z,12.00
2019-05-29T23:58:26.735Z,12.00
